createdAt,value
2022-11-25T00:00:07.924Z,60.70
2022-11-25T00:01:07.930Z,58.40
2022-11-25T00:02:07.968Z,53.00
2022-11-25T00:03:07.975Z,50.40
2022-11-25T00:04:07.869Z,52.30
2022-11-25T00:05:07.832Z,39.20
2022-11-25T00:06:07.872Z,41.90
2022-11-25T00:07:07.885Z,46.70
2022-11-25T00:08:07.821Z,46.40
2022-11-25T00:09:07.794Z,44.80
2022-11-25T00:10:07.825Z,49.50
2022-11-25T00:11:07.769Z,47.70
2022-11-25T00:12:07.781Z,46.60
2022-11-25T00:13:07.740Z,47.20
2022-11-25T00:14:07.777Z,52.40
2022-11-25T00:15:07.731Z,53.90
2022-11-25T00:16:07.796Z,48.30
2022-11-25T00:17:07.775Z,47.80
2022-11-25T00:18:07.720Z,57.90
2022-11-25T00:19:07.680Z,57.50
2022-11-25T00:20:07.698Z,49.90
2022-11-25T00:21:14.744Z,49.70
2022-11-25T00:22:08.339Z,53.30
2022-11-25T00:23:07.630Z,49.50
2022-11-25T00:24:07.652Z,50.10
2022-11-25T00:25:07.649Z,52.50
2022-11-25T00:26:07.628Z,59.40
2022-11-25T00:27:07.589Z,52.90
2022-11-25T00:28:07.628Z,59.00
2022-11-25T00:29:07.567Z,59.20
2022-11-25T00:30:07.718Z,55.00
2022-11-25T00:31:07.547Z,56.10
2022-11-25T00:32:07.625Z,51.10
2022-11-25T00:33:07.525Z,49.00
2022-11-25T00:34:07.548Z,51.80
2022-11-25T00:35:07.520Z,55.90
2022-11-25T00:36:07.517Z,50.60
2022-11-25T00:37:07.507Z,50.30
2022-11-25T00:38:07.489Z,45.80
2022-11-25T00:39:07.471Z,53.30
2022-11-25T00:40:07.467Z,45.90
2022-11-25T00:41:07.428Z,36.10
2022-11-25T00:42:07.456Z,38.70
2022-11-25T00:43:07.415Z,42.40
2022-11-25T00:44:07.769Z,42.00
2022-11-25T00:45:07.394Z,40.20
2022-11-25T00:46:07.481Z,39.80
2022-11-25T00:47:07.389Z,41.10
2022-11-25T00:48:07.393Z,40.40
2022-11-25T00:49:07.345Z,39.20
2022-11-25T00:50:07.380Z,41.60
2022-11-25T00:51:15.264Z,35.50
2022-11-25T00:52:07.334Z,35.90
2022-11-25T00:53:07.337Z,42.10
2022-11-25T00:54:07.314Z,39.90
2022-11-25T00:55:07.284Z,42.70
2022-11-25T00:56:07.295Z,36.50
2022-11-25T00:57:07.291Z,30.40
2022-11-25T00:58:07.315Z,36.40
2022-11-25T00:59:07.261Z,38.50
2022-11-25T01:00:07.261Z,40.00
2022-11-25T01:01:07.282Z,40.20
2022-11-25T01:02:07.325Z,46.40
2022-11-25T01:03:07.200Z,42.20
2022-11-25T01:04:07.226Z,41.60
2022-11-25T01:05:07.192Z,44.70
2022-11-25T01:06:07.187Z,50.90
2022-11-25T01:07:07.172Z,45.60
2022-11-25T01:08:07.162Z,49.90
2022-11-25T01:09:07.155Z,41.70
2022-11-25T01:10:07.154Z,43.30
2022-11-25T01:11:07.213Z,47.10
2022-11-25T01:12:07.121Z,41.10
2022-11-25T01:13:07.106Z,40.50
2022-11-25T01:14:07.115Z,43.90
2022-11-25T01:15:07.075Z,45.30
2022-11-25T01:16:07.154Z,35.10
2022-11-25T01:17:07.041Z,30.50
2022-11-25T01:18:07.054Z,41.10
2022-11-25T01:19:07.021Z,40.80
2022-11-25T01:20:07.062Z,41.60
2022-11-25T01:21:07.011Z,42.00
2022-11-25T01:22:07.018Z,35.40
2022-11-25T01:23:06.991Z,34.90
2022-11-25T01:24:07.894Z,40.50
2022-11-25T01:25:06.952Z,41.20
2022-11-25T01:26:06.979Z,34.00
2022-11-25T01:27:06.938Z,34.70
2022-11-25T01:28:06.939Z,32.40
2022-11-25T01:29:06.926Z,38.10
2022-11-25T01:30:06.920Z,33.10
2022-11-25T01:31:06.909Z,33.00
2022-11-25T01:32:06.975Z,40.60
2022-11-25T01:33:06.876Z,33.00
2022-11-25T01:34:06.879Z,32.40
2022-11-25T01:35:06.870Z,30.10
2022-11-25T01:36:06.860Z,35.70
2022-11-25T01:37:06.828Z,33.10
2022-11-25T01:38:06.840Z,35.70
2022-11-25T01:39:06.799Z,30.30
2022-11-25T01:40:06.823Z,33.70
2022-11-25T01:41:06.777Z,29.50
2022-11-25T01:42:06.788Z,22.30
2022-11-25T01:43:06.762Z,27.90
2022-11-25T01:44:07.526Z,32.20
2022-11-25T01:45:06.750Z,29.90
2022-11-25T01:46:06.810Z,33.80
2022-11-25T01:47:06.717Z,24.50
2022-11-25T01:48:06.730Z,27.40
2022-11-25T01:49:06.713Z,30.80
2022-11-25T01:50:06.688Z,29.40
2022-11-25T01:51:06.694Z,29.20
2022-11-25T01:52:06.676Z,28.40
2022-11-25T01:53:06.680Z,32.80
2022-11-25T01:54:06.667Z,27.20
2022-11-25T01:55:06.645Z,32.70
2022-11-25T01:56:06.636Z,25.10
2022-11-25T01:57:06.634Z,29.10
2022-11-25T01:58:06.617Z,25.40
2022-11-25T01:59:06.612Z,23.20
2022-11-25T02:00:06.585Z,24.50
2022-11-25T02:01:12.083Z,25.10
2022-11-25T02:02:06.605Z,28.80
2022-11-25T02:03:06.568Z,30.90
2022-11-25T02:04:06.574Z,23.10
2022-11-25T02:05:06.563Z,26.60
2022-11-25T02:06:07.444Z,28.70
2022-11-25T02:07:06.585Z,30.40
2022-11-25T02:08:06.485Z,24.90
2022-11-25T02:09:06.498Z,27.50
2022-11-25T02:10:06.476Z,26.70
2022-11-25T02:11:06.494Z,25.20
2022-11-25T02:12:06.453Z,28.10
2022-11-25T02:13:06.472Z,28.70
2022-11-25T02:14:06.423Z,24.70
2022-11-25T02:15:06.450Z,25.70
2022-11-25T02:16:06.427Z,25.30
2022-11-25T02:17:06.438Z,23.40
2022-11-25T02:18:06.373Z,23.20
2022-11-25T02:19:06.392Z,24.40
2022-11-25T02:20:06.357Z,23.30
2022-11-25T02:21:06.378Z,25.90
2022-11-25T02:22:06.332Z,21.20
2022-11-25T02:23:06.359Z,18.20
2022-11-25T02:24:06.319Z,20.10
2022-11-25T02:25:06.382Z,22.40
2022-11-25T02:26:06.294Z,23.80
2022-11-25T02:27:06.303Z,21.60
2022-11-25T02:28:06.414Z,23.70
2022-11-25T02:29:06.280Z,17.70
2022-11-25T02:30:06.250Z,18.50
2022-11-25T02:31:06.256Z,20.10
2022-11-25T02:32:06.248Z,17.50
2022-11-25T02:33:06.231Z,20.00
2022-11-25T02:34:06.255Z,24.20
2022-11-25T02:35:06.209Z,23.90
2022-11-25T02:36:06.170Z,24.10
2022-11-25T02:37:06.251Z,24.30
2022-11-25T02:38:06.150Z,18.50
2022-11-25T02:39:06.179Z,21.50
2022-11-25T02:40:06.134Z,20.30
2022-11-25T02:41:06.153Z,24.30
2022-11-25T02:42:06.111Z,22.10
2022-11-25T02:43:06.119Z,19.80
2022-11-25T02:44:06.101Z,21.40
2022-11-25T02:45:06.112Z,24.00
2022-11-25T02:46:06.442Z,21.10
2022-11-25T02:47:06.102Z,25.00
2022-11-25T02:48:06.063Z,23.00
2022-11-25T02:49:10.216Z,24.00
2022-11-25T02:50:06.032Z,25.60
2022-11-25T02:51:06.029Z,21.70
2022-11-25T02:52:06.010Z,17.80
2022-11-25T02:53:06.009Z,20.40
2022-11-25T02:54:05.988Z,20.90
2022-11-25T02:55:06.005Z,22.80
2022-11-25T02:56:05.959Z,19.90
2022-11-25T02:57:05.978Z,19.70
2022-11-25T02:58:05.951Z,23.90
2022-11-25T02:59:05.945Z,21.40
2022-11-25T03:00:05.923Z,22.10
2022-11-25T03:01:05.935Z,19.90
2022-11-25T03:02:05.944Z,22.90
2022-11-25T03:03:05.919Z,22.20
2022-11-25T03:04:05.867Z,17.20
2022-11-25T03:05:06.275Z,24.60
2022-11-25T03:06:06.349Z,14.90
2022-11-25T03:07:06.709Z,17.00
2022-11-25T03:08:06.617Z,23.60
2022-11-25T03:09:05.843Z,18.30
2022-11-25T03:10:05.817Z,21.80
2022-11-25T03:11:05.820Z,15.80
2022-11-25T03:12:05.807Z,15.80
2022-11-25T03:13:05.797Z,20.40
2022-11-25T03:14:06.556Z,19.60
2022-11-25T03:15:05.766Z,17.70
2022-11-25T03:16:05.818Z,20.20
2022-11-25T03:17:05.755Z,18.90
2022-11-25T03:18:05.706Z,22.90
2022-11-25T03:19:05.734Z,20.60
2022-11-25T03:20:05.707Z,22.00
2022-11-25T03:21:05.733Z,21.40
2022-11-25T03:22:05.668Z,16.90
2022-11-25T03:23:05.681Z,14.90
2022-11-25T03:24:05.655Z,18.00
2022-11-25T03:25:06.524Z,18.50
2022-11-25T03:26:05.636Z,17.90
2022-11-25T03:27:05.646Z,17.20
2022-11-25T03:28:05.633Z,25.60
2022-11-25T03:29:05.615Z,21.20
2022-11-25T03:30:05.588Z,18.90
2022-11-25T03:31:05.595Z,16.20
2022-11-25T03:32:09.528Z,14.60
2022-11-25T03:33:05.585Z,21.20
2022-11-25T03:34:05.536Z,15.40
2022-11-25T03:35:05.550Z,19.60
2022-11-25T03:36:05.532Z,19.90
2022-11-25T03:37:05.610Z,19.30
2022-11-25T03:38:05.510Z,18.90
2022-11-25T03:39:05.513Z,16.40
2022-11-25T03:40:05.472Z,14.90
2022-11-25T03:41:05.497Z,21.00
2022-11-25T03:42:05.451Z,19.10
2022-11-25T03:43:05.493Z,19.40
2022-11-25T03:44:05.443Z,16.20
2022-11-25T03:45:05.451Z,18.70
2022-11-25T03:46:05.433Z,18.10
2022-11-25T03:47:05.421Z,18.60
2022-11-25T03:48:05.383Z,18.30
2022-11-25T03:49:05.410Z,17.30
2022-11-25T03:50:05.529Z,18.50
2022-11-25T03:51:05.372Z,16.10
2022-11-25T03:52:05.354Z,22.10
2022-11-25T03:53:05.361Z,17.00
2022-11-25T03:54:05.312Z,12.90
2022-11-25T03:55:05.328Z,18.50
2022-11-25T03:56:05.295Z,17.10
2022-11-25T03:57:05.302Z,17.60
2022-11-25T03:58:05.283Z,17.40
2022-11-25T03:59:05.301Z,19.30
2022-11-25T04:00:05.270Z,22.00
2022-11-25T04:01:05.323Z,18.70
2022-11-25T04:02:05.250Z,20.30
2022-11-25T04:03:05.241Z,17.40
2022-11-25T04:04:05.230Z,19.60
2022-11-25T04:05:05.228Z,17.90
2022-11-25T04:06:05.190Z,18.50
2022-11-25T04:07:05.199Z,20.20
2022-11-25T04:08:05.267Z,18.60
2022-11-25T04:09:06.138Z,16.20
2022-11-25T04:10:05.153Z,20.60
2022-11-25T04:11:05.182Z,17.60
2022-11-25T04:12:05.121Z,15.70
2022-11-25T04:13:05.131Z,17.30
2022-11-25T04:14:05.107Z,15.80
2022-11-25T04:15:06.070Z,16.40
2022-11-25T04:16:05.095Z,19.60
2022-11-25T04:17:05.130Z,16.80
2022-11-25T04:18:05.056Z,17.70
2022-11-25T04:19:05.084Z,14.10
2022-11-25T04:20:05.197Z,21.60
2022-11-25T04:21:05.050Z,17.00
2022-11-25T04:22:05.018Z,15.10
2022-11-25T04:23:05.027Z,22.70
2022-11-25T04:24:04.987Z,20.10
2022-11-25T04:25:05.001Z,17.10
2022-11-25T04:26:04.978Z,17.60
2022-11-25T04:27:04.987Z,16.40
2022-11-25T04:28:05.179Z,21.90
2022-11-25T04:29:05.070Z,18.70
2022-11-25T04:30:04.918Z,17.60
2022-11-25T04:31:04.943Z,19.80
2022-11-25T04:32:04.910Z,14.90
2022-11-25T04:33:04.915Z,17.30
2022-11-25T04:34:04.878Z,17.90
2022-11-25T04:35:04.907Z,15.40
2022-11-25T04:36:04.846Z,17.40
2022-11-25T04:37:04.873Z,15.80
2022-11-25T04:38:04.837Z,15.60
2022-11-25T04:39:04.856Z,20.50
2022-11-25T04:40:04.816Z,19.40
2022-11-25T04:41:04.816Z,16.50
2022-11-25T04:42:04.796Z,15.50
2022-11-25T04:43:09.128Z,17.60
2022-11-25T04:44:05.775Z,17.80
2022-11-25T04:45:22.588Z,19.00
2022-11-25T04:46:13.973Z,23.20
2022-11-25T04:47:05.806Z,16.20
2022-11-25T04:48:04.885Z,16.20
2022-11-25T04:49:04.762Z,17.00
2022-11-25T04:50:04.694Z,14.90
2022-11-25T04:51:04.739Z,18.80
2022-11-25T04:52:04.684Z,12.60
2022-11-25T04:53:04.687Z,16.20
2022-11-25T04:54:04.667Z,12.90
2022-11-25T04:55:04.664Z,16.70
2022-11-25T04:56:04.641Z,13.60
2022-11-25T04:57:04.645Z,16.60
2022-11-25T04:58:04.613Z,18.90
2022-11-25T04:59:04.627Z,16.90
2022-11-25T05:00:04.587Z,16.20
2022-11-25T05:01:04.656Z,17.00
2022-11-25T05:02:04.624Z,15.20
2022-11-25T05:03:04.573Z,15.40
2022-11-25T05:04:04.550Z,13.20
2022-11-25T05:05:04.573Z,18.90
2022-11-25T05:06:04.523Z,15.00
2022-11-25T05:07:04.544Z,11.90
2022-11-25T05:08:04.496Z,12.70
2022-11-25T05:09:04.525Z,20.90
2022-11-25T05:10:04.477Z,21.40
2022-11-25T05:11:04.750Z,14.90
2022-11-25T05:12:04.462Z,18.40
2022-11-25T05:13:04.462Z,18.60
2022-11-25T05:14:04.443Z,17.50
2022-11-25T05:15:04.452Z,14.20
2022-11-25T05:16:04.410Z,17.60
2022-11-25T05:17:04.479Z,20.00
2022-11-25T05:18:04.411Z,16.90
2022-11-25T05:19:04.395Z,19.60
2022-11-25T05:20:04.362Z,17.50
2022-11-25T05:21:04.385Z,16.10
2022-11-25T05:22:04.351Z,15.50
2022-11-25T05:23:04.357Z,19.60
2022-11-25T05:24:04.326Z,15.50
2022-11-25T05:25:04.321Z,16.50
2022-11-25T05:26:06.051Z,18.70
2022-11-25T05:27:04.305Z,17.60
2022-11-25T05:28:04.440Z,21.50
2022-11-25T05:29:04.365Z,17.10
2022-11-25T05:30:04.251Z,16.80
2022-11-25T05:31:04.317Z,14.50
2022-11-25T05:32:04.228Z,13.30
2022-11-25T05:33:04.242Z,15.50
2022-11-25T05:34:04.209Z,19.60
2022-11-25T05:35:04.209Z,18.00
2022-11-25T05:36:04.193Z,13.40
2022-11-25T05:37:04.197Z,20.40
2022-11-25T05:38:04.192Z,15.50
2022-11-25T05:39:04.185Z,18.20
2022-11-25T05:40:04.152Z,15.60
2022-11-25T05:41:04.149Z,23.90
2022-11-25T05:42:04.123Z,21.40
2022-11-25T05:43:04.140Z,20.70
2022-11-25T05:44:04.110Z,20.60
2022-11-25T05:45:04.110Z,23.10
2022-11-25T05:46:04.131Z,20.80
2022-11-25T05:47:04.079Z,25.90
2022-11-25T05:48:04.469Z,24.20
2022-11-25T05:49:04.077Z,25.20
2022-11-25T05:50:04.887Z,20.40
2022-11-25T05:51:04.797Z,23.80
2022-11-25T05:52:04.955Z,18.90
2022-11-25T05:53:04.300Z,19.10
2022-11-25T05:54:03.987Z,17.70
2022-11-25T05:55:04.945Z,24.40
2022-11-25T05:56:04.827Z,20.90
2022-11-25T05:57:04.225Z,21.60
2022-11-25T05:58:03.945Z,18.20
2022-11-25T05:59:03.946Z,21.60
2022-11-25T06:00:03.916Z,23.70
2022-11-25T06:01:03.934Z,23.10
2022-11-25T06:02:03.950Z,27.00
2022-11-25T06:03:03.985Z,21.80
2022-11-25T06:04:03.888Z,21.90
2022-11-25T06:05:03.876Z,24.00
2022-11-25T06:06:03.882Z,21.30
2022-11-25T06:07:03.857Z,27.40
2022-11-25T06:08:03.855Z,24.00
2022-11-25T06:09:03.835Z,27.20
2022-11-25T06:10:03.829Z,25.50
2022-11-25T06:11:03.786Z,27.40
2022-11-25T06:12:03.804Z,28.10
2022-11-25T06:13:03.765Z,24.30
2022-11-25T06:14:03.840Z,22.60
2022-11-25T06:15:03.754Z,23.70
2022-11-25T06:16:07.639Z,26.00
2022-11-25T06:17:03.741Z,30.30
2022-11-25T06:18:03.736Z,23.30
2022-11-25T06:19:03.693Z,27.60
2022-11-25T06:20:03.740Z,28.20
2022-11-25T06:21:03.688Z,25.80
2022-11-25T06:22:03.697Z,30.20
2022-11-25T06:23:03.663Z,30.40
2022-11-25T06:24:03.696Z,23.90
2022-11-25T06:25:04.250Z,28.10
2022-11-25T06:26:03.654Z,24.10
2022-11-25T06:27:03.612Z,27.00
2022-11-25T06:28:19.105Z,24.40
2022-11-25T06:29:04.599Z,24.10
2022-11-25T06:30:03.632Z,23.40
2022-11-25T06:31:03.615Z,25.10
2022-11-25T06:32:03.586Z,23.60
2022-11-25T06:33:03.557Z,27.80
2022-11-25T06:34:03.612Z,25.10
2022-11-25T06:35:03.543Z,23.30
2022-11-25T06:36:03.549Z,26.70
2022-11-25T06:37:03.527Z,25.60
2022-11-25T06:38:03.522Z,25.40
2022-11-25T06:39:03.482Z,25.10
2022-11-25T06:40:03.493Z,23.70
2022-11-25T06:41:03.470Z,24.20
2022-11-25T06:42:03.480Z,30.40
2022-11-25T06:43:03.443Z,30.50
2022-11-25T06:44:03.480Z,30.50
2022-11-25T06:45:03.423Z,23.40
2022-11-25T06:46:03.458Z,27.50
2022-11-25T06:47:03.401Z,28.50
2022-11-25T06:48:03.428Z,21.90
2022-11-25T06:49:03.383Z,26.60
2022-11-25T06:50:03.399Z,27.20
2022-11-25T06:51:03.771Z,29.20
2022-11-25T06:52:03.401Z,25.50
2022-11-25T06:53:03.336Z,24.60
2022-11-25T06:54:03.340Z,31.20
2022-11-25T06:55:03.310Z,25.50
2022-11-25T06:56:03.353Z,26.80
2022-11-25T06:57:03.291Z,25.80
2022-11-25T06:58:28.201Z,28.80
2022-11-25T06:59:04.260Z,26.20
2022-11-25T07:00:03.320Z,26.60
2022-11-25T07:01:03.259Z,28.90
2022-11-25T07:02:03.295Z,25.60
2022-11-25T07:03:03.264Z,26.40
2022-11-25T07:04:03.256Z,25.50
2022-11-25T07:05:03.199Z,28.20
2022-11-25T07:06:03.224Z,27.70
2022-11-25T07:07:04.154Z,23.90
2022-11-25T07:08:03.219Z,28.40
2022-11-25T07:09:03.148Z,27.60
2022-11-25T07:10:03.163Z,28.60
2022-11-25T07:11:03.128Z,22.60
2022-11-25T07:12:03.156Z,25.90
2022-11-25T07:13:03.120Z,25.00
2022-11-25T07:14:03.126Z,22.90
2022-11-25T07:15:03.088Z,27.30
2022-11-25T07:16:03.127Z,31.30
2022-11-25T07:17:07.419Z,25.30
2022-11-25T07:18:04.110Z,29.40
2022-11-25T07:19:03.057Z,30.80
2022-11-25T07:20:03.088Z,27.00
2022-11-25T07:21:03.031Z,25.20
2022-11-25T07:22:03.047Z,30.90
2022-11-25T07:23:03.009Z,23.10
2022-11-25T07:24:03.053Z,29.70
2022-11-25T07:25:02.987Z,24.90
2022-11-25T07:26:03.018Z,29.60
2022-11-25T07:27:03.787Z,29.80
2022-11-25T07:28:03.012Z,25.60
2022-11-25T07:29:02.960Z,24.60
2022-11-25T07:30:54.324Z,29.60
2022-11-25T07:32:10.078Z,29.20
2022-11-25T07:33:04.242Z,30.90
2022-11-25T07:34:02.972Z,26.10
2022-11-25T07:35:02.878Z,27.90
2022-11-25T07:36:02.905Z,31.20
2022-11-25T07:37:02.875Z,30.80
2022-11-25T07:38:02.892Z,37.50
2022-11-25T07:39:02.836Z,31.00
2022-11-25T07:40:02.847Z,32.10
2022-11-25T07:41:02.823Z,39.20
2022-11-25T07:42:02.826Z,29.30
2022-11-25T07:43:02.789Z,32.00
2022-11-25T07:44:02.885Z,22.60
2022-11-25T07:45:02.770Z,30.90
2022-11-25T07:46:02.829Z,32.60
2022-11-25T07:47:02.745Z,31.20
2022-11-25T07:48:02.757Z,29.70
2022-11-25T07:49:02.727Z,35.10
2022-11-25T07:50:02.761Z,31.50
2022-11-25T07:51:02.725Z,32.20
2022-11-25T07:52:03.678Z,29.50
2022-11-25T07:53:02.706Z,28.00
2022-11-25T07:54:02.685Z,29.30
2022-11-25T07:55:02.666Z,32.80
2022-11-25T07:56:02.686Z,29.00
2022-11-25T07:57:02.699Z,28.80
2022-11-25T07:58:02.645Z,31.50
2022-11-25T07:59:02.605Z,31.90
2022-11-25T08:00:02.639Z,32.30
2022-11-25T08:01:02.598Z,31.20
2022-11-25T08:02:02.666Z,30.90
2022-11-25T08:03:02.687Z,34.90
2022-11-25T08:04:02.588Z,31.30
2022-11-25T08:05:02.555Z,29.10
2022-11-25T08:06:02.583Z,35.60
2022-11-25T08:07:02.536Z,34.50
2022-11-25T08:08:02.654Z,34.70
2022-11-25T08:09:02.506Z,31.80
2022-11-25T08:10:02.524Z,33.50
2022-11-25T08:11:02.485Z,35.80
2022-11-25T08:12:02.509Z,32.60
2022-11-25T08:13:02.485Z,32.60
2022-11-25T08:14:02.593Z,32.90
2022-11-25T08:15:02.594Z,28.90
2022-11-25T08:16:02.538Z,32.70
2022-11-25T08:17:02.424Z,30.50
2022-11-25T08:18:02.443Z,31.50
2022-11-25T08:19:02.391Z,26.40
2022-11-25T08:20:02.418Z,33.70
2022-11-25T08:21:02.364Z,30.50
2022-11-25T08:22:02.384Z,31.20
2022-11-25T08:23:02.354Z,26.40
2022-11-25T08:24:02.362Z,31.60
2022-11-25T08:25:02.335Z,29.60
2022-11-25T08:26:02.331Z,30.20
2022-11-25T08:27:02.309Z,28.50
2022-11-25T08:28:02.321Z,27.00
2022-11-25T08:29:02.272Z,26.80
2022-11-25T08:30:02.294Z,32.50
2022-11-25T08:31:02.373Z,28.70
2022-11-25T08:32:04.305Z,31.70
2022-11-25T08:33:03.242Z,31.80
2022-11-25T08:34:02.831Z,31.90
2022-11-25T08:35:02.221Z,27.00
2022-11-25T08:36:02.240Z,34.10
2022-11-25T08:37:02.182Z,34.30
2022-11-25T08:38:02.195Z,34.30
2022-11-25T08:39:02.180Z,36.50
2022-11-25T08:40:02.406Z,33.90
2022-11-25T08:41:02.149Z,31.90
2022-11-25T08:42:02.162Z,33.70
2022-11-25T08:43:02.115Z,37.20
2022-11-25T08:44:02.140Z,33.20
2022-11-25T08:45:02.106Z,34.30
2022-11-25T08:46:02.388Z,33.30
2022-11-25T08:47:02.132Z,33.40
2022-11-25T08:48:02.097Z,30.70
2022-11-25T08:49:02.065Z,32.20
2022-11-25T08:50:02.076Z,36.60
2022-11-25T08:51:02.032Z,36.50
2022-11-25T08:52:02.062Z,34.60
2022-11-25T08:53:02.132Z,35.00
2022-11-25T08:54:02.848Z,30.70
2022-11-25T08:55:02.252Z,32.50
2022-11-25T08:56:02.261Z,29.40
2022-11-25T08:57:01.980Z,23.80
2022-11-25T08:58:02.010Z,33.50
2022-11-25T08:59:01.958Z,33.70
2022-11-25T09:00:01.968Z,34.20
2022-11-25T09:01:01.940Z,30.40
2022-11-25T09:02:02.011Z,35.20
2022-11-25T09:03:04.520Z,30.90
2022-11-25T09:04:01.919Z,26.10
2022-11-25T09:05:01.879Z,20.80
2022-11-25T09:06:01.891Z,18.90
2022-11-25T09:07:01.855Z,23.60
2022-11-25T09:08:01.916Z,25.30
2022-11-25T09:09:01.956Z,16.60
2022-11-25T09:10:01.853Z,15.50
2022-11-25T09:11:01.896Z,19.30
2022-11-25T09:12:01.890Z,16.60
2022-11-25T09:13:01.806Z,23.40
2022-11-25T09:14:02.792Z,17.20
2022-11-25T09:15:01.768Z,14.90
2022-11-25T09:16:02.562Z,20.80
2022-11-25T09:17:01.737Z,18.60
2022-11-25T09:18:01.748Z,20.70
2022-11-25T09:19:01.721Z,20.20
2022-11-25T09:20:01.726Z,20.90
2022-11-25T09:21:01.690Z,27.20
2022-11-25T09:22:01.701Z,26.20
2022-11-25T09:23:01.685Z,27.80
2022-11-25T09:24:01.703Z,24.70
2022-11-25T09:25:01.678Z,17.90
2022-11-25T09:26:01.654Z,21.50
2022-11-25T09:27:01.619Z,21.30
2022-11-25T09:28:01.667Z,20.10
2022-11-25T09:29:01.598Z,20.50
2022-11-25T09:30:01.618Z,17.20
2022-11-25T09:31:01.645Z,19.20
2022-11-25T09:32:01.620Z,24.50
2022-11-25T09:33:01.558Z,20.60
2022-11-25T09:34:01.701Z,24.20
2022-11-25T09:35:01.549Z,17.60
2022-11-25T09:36:01.607Z,19.80
2022-11-25T09:37:01.537Z,17.70
2022-11-25T09:38:01.549Z,15.00
2022-11-25T09:39:01.495Z,16.60
2022-11-25T09:40:01.525Z,23.00
2022-11-25T09:41:01.937Z,15.10
2022-11-25T09:42:01.489Z,16.30
2022-11-25T09:43:01.450Z,18.30
2022-11-25T09:44:01.471Z,18.40
2022-11-25T09:45:01.467Z,20.90
2022-11-25T09:46:01.508Z,15.10
2022-11-25T09:47:01.406Z,16.10
2022-11-25T09:48:01.425Z,17.70
2022-11-25T09:49:01.376Z,12.40
2022-11-25T09:50:01.396Z,13.60
2022-11-25T09:51:01.371Z,15.80
2022-11-25T09:52:01.508Z,16.10
2022-11-25T09:53:01.343Z,16.00
2022-11-25T09:54:01.365Z,17.40
2022-11-25T09:55:01.327Z,12.40
2022-11-25T09:56:01.817Z,14.70
2022-11-25T09:57:01.345Z,14.10
2022-11-25T09:58:01.311Z,15.00
2022-11-25T09:59:01.265Z,14.70
2022-11-25T10:00:01.293Z,15.30
2022-11-25T10:01:01.266Z,16.30
2022-11-25T10:02:01.352Z,15.20
2022-11-25T10:03:02.182Z,16.90
2022-11-25T10:04:01.265Z,14.00
2022-11-25T10:05:01.206Z,10.40
2022-11-25T10:06:01.282Z,14.10
2022-11-25T10:07:01.243Z,18.60
2022-11-25T10:08:01.242Z,15.10
2022-11-25T10:09:01.173Z,15.90
2022-11-25T10:10:01.202Z,16.40
2022-11-25T10:11:01.152Z,14.40
2022-11-25T10:12:01.163Z,17.40
2022-11-25T10:13:01.130Z,12.90
2022-11-25T10:14:02.078Z,17.30
2022-11-25T10:15:01.114Z,11.90
2022-11-25T10:16:01.958Z,12.60
2022-11-25T10:17:01.095Z,9.90
2022-11-25T10:18:01.103Z,10.20
2022-11-25T10:19:01.053Z,14.10
2022-11-25T10:20:01.136Z,11.70
2022-11-25T10:21:01.037Z,12.00
2022-11-25T10:22:01.013Z,12.80
2022-11-25T10:23:01.044Z,10.60
2022-11-25T10:24:00.992Z,11.60
2022-11-25T10:25:01.340Z,13.20
2022-11-25T10:26:00.962Z,13.60
2022-11-25T10:27:00.984Z,14.10
2022-11-25T10:28:00.969Z,14.40
2022-11-25T10:29:00.963Z,15.60
2022-11-25T10:30:00.932Z,11.20
2022-11-25T10:31:00.999Z,10.20
2022-11-25T10:32:00.950Z,12.30
2022-11-25T10:33:02.662Z,15.90
2022-11-25T10:34:00.899Z,15.00
2022-11-25T10:35:00.904Z,16.10
2022-11-25T10:36:01.788Z,15.30
2022-11-25T10:37:00.884Z,14.80
2022-11-25T10:38:00.874Z,17.30
2022-11-25T10:39:00.855Z,15.80
2022-11-25T10:40:00.823Z,15.40
2022-11-25T10:41:00.835Z,15.20
2022-11-25T10:42:00.803Z,11.90
2022-11-25T10:43:00.822Z,10.70
2022-11-25T10:44:00.773Z,10.50
2022-11-25T10:45:00.790Z,10.70
2022-11-25T10:46:00.759Z,12.90
2022-11-25T10:47:16.311Z,9.60
2022-11-25T10:48:01.925Z,12.00
2022-11-25T10:49:00.752Z,12.20
2022-11-25T10:50:00.703Z,14.30
2022-11-25T10:51:00.726Z,12.00
2022-11-25T10:52:00.681Z,9.70
2022-11-25T10:53:00.762Z,13.80
2022-11-25T10:54:00.671Z,10.30
2022-11-25T10:55:00.691Z,11.50
2022-11-25T10:56:00.655Z,14.40
2022-11-25T10:57:00.680Z,10.20
2022-11-25T10:58:00.642Z,10.50
2022-11-25T10:59:00.651Z,12.80
2022-11-25T11:00:00.621Z,8.50
2022-11-25T11:01:00.621Z,10.10
2022-11-25T11:02:00.679Z,11.50
2022-11-25T11:03:00.697Z,13.30
2022-11-25T11:04:00.562Z,12.70
2022-11-25T11:05:00.571Z,10.90
2022-11-25T11:06:00.552Z,9.20
2022-11-25T11:07:00.582Z,9.60
2022-11-25T11:08:00.600Z,8.70
2022-11-25T11:09:00.803Z,9.00
2022-11-25T11:10:00.513Z,9.60
2022-11-25T11:11:00.501Z,10.70
2022-11-25T11:12:00.470Z,8.70
2022-11-25T11:13:00.480Z,7.50
2022-11-25T11:14:00.452Z,9.10
2022-11-25T11:15:00.464Z,7.10
2022-11-25T11:16:01.170Z,8.70
2022-11-25T11:17:00.662Z,5.30
2022-11-25T11:18:01.070Z,9.80
2022-11-25T11:19:00.430Z,11.50
2022-11-25T11:20:00.394Z,8.40
2022-11-25T11:21:00.512Z,9.30
2022-11-25T11:22:00.364Z,11.00
2022-11-25T11:23:04.185Z,6.50
2022-11-25T11:24:01.357Z,9.10
2022-11-25T11:25:00.349Z,8.40
2022-11-25T11:26:00.321Z,9.40
2022-11-25T11:27:00.322Z,13.00
2022-11-25T11:28:00.290Z,10.70
2022-11-25T11:29:00.301Z,9.60
2022-11-25T11:30:00.270Z,9.20
2022-11-25T11:31:00.339Z,6.70
2022-11-25T11:32:00.239Z,11.40
2022-11-25T11:33:00.253Z,9.90
2022-11-25T11:34:00.230Z,6.80
2022-11-25T11:35:00.250Z,6.10
2022-11-25T11:36:00.209Z,10.50
2022-11-25T11:37:01.021Z,7.60
2022-11-25T11:38:00.189Z,8.60
2022-11-25T11:39:00.190Z,7.30
2022-11-25T11:40:00.397Z,7.50
2022-11-25T11:41:00.167Z,8.40
2022-11-25T11:42:00.148Z,9.90
2022-11-25T11:43:00.175Z,8.70
2022-11-25T11:44:00.140Z,9.20
2022-11-25T11:45:00.121Z,9.70
2022-11-25T11:46:00.081Z,7.50
2022-11-25T11:47:00.271Z,9.10
2022-11-25T11:48:00.096Z,9.20
2022-11-25T11:49:00.090Z,10.30
2022-11-25T11:50:00.052Z,9.40
2022-11-25T11:51:00.048Z,10.10
2022-11-25T11:52:00.021Z,8.10
2022-11-25T11:53:00.030Z,7.60
2022-11-25T11:54:00.011Z,8.20
2022-11-25T11:55:00.009Z,7.60
2022-11-25T11:56:32.870Z,8.20
2022-11-25T11:57:00.978Z,8.40
2022-11-25T11:58:00.102Z,9.00
2022-11-25T11:59:00.120Z,8.30
2022-11-25T11:59:59.931Z,9.60
2022-11-25T12:00:59.939Z,10.10
2022-11-25T12:01:59.966Z,9.70
2022-11-25T12:03:00.906Z,8.70
2022-11-25T12:03:59.880Z,9.40
2022-11-25T12:04:59.889Z,11.20
2022-11-25T12:05:59.868Z,8.60
2022-11-25T12:06:59.874Z,8.00
2022-11-25T12:07:59.918Z,8.60
2022-11-25T12:08:59.849Z,10.90
2022-11-25T12:09:59.808Z,6.10
2022-11-25T12:10:59.827Z,7.70
2022-11-25T12:11:59.799Z,7.00
2022-11-25T12:12:59.818Z,5.10
2022-11-25T12:14:01.140Z,7.90
2022-11-25T12:14:59.788Z,11.30
2022-11-25T12:15:59.813Z,9.60
2022-11-25T12:16:59.748Z,7.30
2022-11-25T12:17:59.738Z,7.30
2022-11-25T12:18:59.766Z,11.30
2022-11-25T12:19:59.698Z,7.00
2022-11-25T12:20:59.709Z,9.80
2022-11-25T12:21:59.675Z,7.70
2022-11-25T12:22:59.688Z,7.70
2022-11-25T12:23:59.644Z,9.00
2022-11-25T12:24:59.699Z,7.40
2022-11-25T12:25:59.628Z,9.50
2022-11-25T12:26:59.632Z,8.30
2022-11-25T12:27:59.599Z,12.00
2022-11-25T12:28:59.607Z,7.80
2022-11-25T12:29:59.610Z,7.00
2022-11-25T12:31:04.752Z,9.30
2022-11-25T12:32:00.614Z,8.50
2022-11-25T12:32:59.575Z,8.60
2022-11-25T12:33:59.537Z,7.20
2022-11-25T12:34:59.557Z,7.50
2022-11-25T12:35:59.586Z,9.70
2022-11-25T12:36:59.898Z,10.40
2022-11-25T12:37:59.877Z,8.80
2022-11-25T12:39:00.447Z,8.30
2022-11-25T12:39:59.487Z,7.70
2022-11-25T12:40:59.486Z,8.20
2022-11-25T12:41:59.488Z,9.50
2022-11-25T12:42:59.448Z,7.00
2022-11-25T12:43:59.423Z,8.40
2022-11-25T12:44:59.455Z,6.60
2022-11-25T12:46:00.313Z,10.50
2022-11-25T12:46:59.424Z,5.70
2022-11-25T12:47:59.747Z,6.60
2022-11-25T12:48:59.408Z,9.60
2022-11-25T12:49:59.345Z,8.50
2022-11-25T12:50:59.360Z,8.10
2022-11-25T12:52:00.217Z,5.70
2022-11-25T12:53:00.120Z,9.70
2022-11-25T12:53:59.366Z,9.20
2022-11-25T12:54:59.327Z,10.70
2022-11-25T12:55:59.306Z,9.90